createdAt,value
2023-03-15T00:02:07.995Z,6.64
2023-03-15T00:04:40.875Z,6.57
2023-03-15T00:07:09.789Z,6.57
2023-03-15T00:09:39.222Z,6.54
2023-03-15T00:12:08.075Z,6.56
2023-03-15T00:14:37.768Z,6.56
2023-03-15T00:17:07.097Z,6.57
2023-03-15T00:19:41.120Z,6.47
2023-03-15T00:22:09.459Z,6.34
2023-03-15T00:24:38.044Z,6.29
2023-03-15T00:27:06.869Z,6.25
2023-03-15T00:29:35.331Z,6.18
2023-03-15T00:32:03.426Z,6.15
2023-03-15T00:34:34.159Z,6.00
2023-03-15T00:37:02.165Z,5.87
2023-03-15T00:39:30.373Z,5.87
2023-03-15T00:41:58.845Z,5.72
2023-03-15T00:44:32.052Z,5.70
2023-03-15T00:47:02.726Z,5.75
2023-03-15T00:49:34.314Z,5.68
2023-03-15T00:52:02.314Z,5.64
2023-03-15T00:54:33.837Z,5.69
2023-03-15T00:57:02.268Z,5.68
2023-03-15T00:59:35.410Z,5.63
2023-03-15T01:02:06.498Z,5.48
2023-03-15T01:04:36.393Z,5.51
2023-03-15T01:07:05.463Z,5.47
2023-03-15T01:09:33.583Z,5.39
2023-03-15T01:12:04.479Z,5.35
2023-03-15T01:14:35.891Z,5.35
2023-03-15T01:17:04.618Z,5.34
2023-03-15T01:19:32.897Z,5.29
2023-03-15T01:22:01.832Z,5.33
2023-03-15T01:24:29.950Z,5.35
2023-03-15T01:26:58.081Z,5.30
2023-03-15T01:29:25.966Z,5.35
2023-03-15T01:31:54.915Z,5.42
2023-03-15T01:34:23.460Z,5.53
2023-03-15T01:36:55.593Z,5.48
2023-03-15T01:39:23.574Z,5.56
2023-03-15T01:41:51.413Z,5.82
2023-03-15T01:44:20.225Z,5.93
2023-03-15T01:46:48.416Z,5.88
2023-03-15T01:49:31.485Z,5.90
2023-03-15T01:52:05.925Z,5.84
2023-03-15T01:54:35.040Z,5.97
2023-03-15T01:57:24.260Z,6.03
2023-03-15T02:00:17.409Z,6.06
2023-03-15T02:03:00.100Z,6.10
2023-03-15T02:05:33.221Z,6.02
2023-03-15T02:08:02.778Z,6.00
2023-03-15T02:10:36.148Z,5.89
2023-03-15T02:13:09.278Z,5.88
2023-03-15T02:15:37.996Z,5.82
2023-03-15T02:18:06.118Z,5.69
2023-03-15T02:21:08.986Z,5.85
2023-03-15T02:23:37.899Z,5.83
2023-03-15T02:26:32.324Z,5.83
2023-03-15T02:29:01.594Z,5.96
2023-03-15T02:31:29.725Z,5.80
2023-03-15T02:33:57.982Z,5.84
2023-03-15T02:36:28.756Z,5.91
2023-03-15T02:39:02.216Z,5.91
2023-03-15T02:41:35.698Z,5.95
2023-03-15T02:44:17.017Z,5.99
2023-03-15T02:46:49.182Z,6.05
2023-03-15T02:49:17.740Z,5.93
2023-03-15T02:51:46.042Z,5.82
2023-03-15T02:54:14.274Z,5.87
2023-03-15T02:56:45.259Z,5.80
2023-03-15T02:59:14.769Z,5.66
2023-03-15T03:01:46.276Z,5.58
2023-03-15T03:04:14.599Z,5.58
2023-03-15T03:06:44.547Z,5.57
2023-03-15T03:09:13.479Z,5.54
2023-03-15T03:11:41.870Z,5.48
2023-03-15T03:14:09.958Z,5.32
2023-03-15T03:16:38.089Z,5.23
2023-03-15T03:19:08.155Z,5.12
2023-03-15T03:21:40.079Z,4.97
2023-03-15T03:24:08.496Z,4.86
2023-03-15T03:27:13.196Z,4.77
2023-03-15T03:29:42.569Z,4.69
2023-03-15T03:32:11.712Z,4.61
2023-03-15T03:34:39.980Z,4.52
2023-03-15T03:37:08.463Z,4.45
2023-03-15T03:39:37.018Z,4.40
2023-03-15T03:42:05.708Z,4.37
2023-03-15T03:44:33.620Z,4.34
2023-03-15T03:47:04.755Z,4.27
2023-03-15T03:49:33.043Z,4.24
2023-03-15T03:52:04.285Z,4.27
2023-03-15T03:54:32.510Z,4.22
2023-03-15T03:57:00.800Z,4.24
2023-03-15T03:59:28.970Z,4.25
2023-03-15T04:01:57.276Z,4.30
2023-03-15T04:04:30.679Z,4.31
2023-03-15T04:06:58.947Z,4.41
2023-03-15T04:09:27.319Z,4.78
2023-03-15T04:12:01.974Z,5.51
2023-03-15T04:14:30.055Z,6.18
2023-03-15T04:16:58.486Z,6.79
2023-03-15T04:19:28.377Z,7.75
2023-03-15T04:21:56.629Z,8.72
2023-03-15T04:24:25.794Z,9.57
2023-03-15T04:26:58.153Z,10.07
2023-03-15T04:29:26.547Z,10.91
2023-03-15T04:31:55.888Z,11.54
2023-03-15T04:34:28.886Z,11.71
2023-03-15T04:36:57.560Z,12.36
2023-03-15T04:39:26.116Z,12.88
2023-03-15T04:41:55.381Z,13.44
2023-03-15T04:44:27.203Z,13.54
2023-03-15T04:46:55.977Z,14.01
2023-03-15T04:49:24.262Z,14.67
2023-03-15T04:51:52.177Z,15.41
2023-03-15T04:54:20.229Z,15.78
2023-03-15T04:56:48.303Z,15.49
2023-03-15T04:59:16.287Z,15.25
2023-03-15T05:01:44.442Z,15.93
2023-03-15T05:04:13.962Z,15.94
2023-03-15T05:06:41.911Z,16.21
2023-03-15T05:09:10.115Z,17.13
2023-03-15T05:11:38.213Z,16.96
2023-03-15T05:14:06.334Z,16.85
2023-03-15T05:16:34.716Z,17.31
2023-03-15T05:19:04.070Z,17.88
2023-03-15T05:21:35.403Z,18.12
2023-03-15T05:24:04.789Z,17.79
2023-03-15T05:26:33.017Z,19.02
2023-03-15T05:29:00.912Z,19.16
2023-03-15T05:31:29.118Z,18.53
2023-03-15T05:33:57.367Z,17.14
2023-03-15T05:36:25.701Z,15.02
2023-03-15T05:38:54.256Z,13.60
2023-03-15T05:41:24.744Z,11.85
2023-03-15T05:43:53.158Z,10.95
2023-03-15T05:46:23.051Z,10.16
2023-03-15T05:48:51.439Z,9.66
2023-03-15T05:51:28.266Z,9.68
2023-03-15T05:53:56.526Z,9.25
2023-03-15T05:56:24.576Z,8.91
2023-03-15T05:58:52.751Z,8.71
2023-03-15T06:01:21.123Z,8.71
2023-03-15T06:03:53.794Z,8.84
2023-03-15T06:06:21.883Z,8.95
2023-03-15T06:08:50.070Z,8.73
2023-03-15T06:11:18.786Z,8.61
2023-03-15T06:13:47.183Z,8.64
2023-03-15T06:16:18.092Z,8.68
2023-03-15T06:18:45.990Z,8.80
2023-03-15T06:21:14.060Z,8.97
2023-03-15T06:23:42.736Z,9.08
2023-03-15T06:26:11.283Z,9.20
2023-03-15T06:28:39.332Z,9.38
2023-03-15T06:31:11.826Z,9.48
2023-03-15T06:33:42.405Z,9.61
2023-03-15T06:36:10.898Z,9.70
2023-03-15T06:38:39.437Z,9.57
2023-03-15T06:41:08.994Z,9.53
2023-03-15T06:43:42.848Z,9.67
2023-03-15T06:46:16.742Z,9.68
2023-03-15T06:48:45.180Z,9.64
2023-03-15T06:51:13.215Z,9.53
2023-03-15T06:53:42.116Z,9.66
2023-03-15T06:56:10.301Z,9.74
2023-03-15T06:58:38.603Z,9.80
2023-03-15T07:01:12.023Z,9.96
2023-03-15T07:03:41.326Z,10.04
2023-03-15T07:06:09.694Z,9.84
2023-03-15T07:08:41.676Z,9.95
2023-03-15T07:11:10.195Z,9.96
2023-03-15T07:13:38.230Z,9.87
2023-03-15T07:16:08.884Z,9.87
2023-03-15T07:18:36.734Z,10.06
2023-03-15T07:21:07.298Z,10.10
2023-03-15T07:23:35.257Z,10.14
2023-03-15T07:26:03.491Z,10.12
2023-03-15T07:28:31.793Z,10.32
2023-03-15T07:31:05.223Z,10.17
2023-03-15T07:33:36.884Z,10.28
2023-03-15T07:36:07.187Z,10.15
2023-03-15T07:38:36.628Z,9.91
2023-03-15T07:41:07.900Z,10.06
2023-03-15T07:43:35.900Z,10.34
2023-03-15T07:46:04.114Z,10.41
2023-03-15T07:48:35.166Z,10.52
2023-03-15T07:51:02.973Z,10.59
2023-03-15T07:53:34.895Z,10.58
2023-03-15T07:56:03.003Z,10.54
2023-03-15T07:58:31.119Z,10.68
2023-03-15T08:01:00.149Z,10.63
2023-03-15T08:03:28.540Z,10.65
2023-03-15T08:05:57.853Z,10.65
2023-03-15T08:08:30.322Z,10.84
2023-03-15T08:10:59.759Z,10.96
2023-03-15T08:13:28.525Z,11.13
2023-03-15T08:15:57.173Z,11.08
2023-03-15T08:18:29.980Z,11.05
2023-03-15T08:20:59.586Z,10.84
2023-03-15T08:23:28.084Z,10.88
2023-03-15T08:25:57.284Z,11.01
2023-03-15T08:28:26.047Z,11.04
2023-03-15T08:30:54.033Z,11.14
2023-03-15T08:33:24.009Z,11.08
2023-03-15T08:35:55.169Z,11.11
2023-03-15T08:38:23.929Z,11.09
2023-03-15T08:40:59.757Z,11.16
2023-03-15T08:43:27.974Z,11.18
2023-03-15T08:46:01.453Z,11.36
2023-03-15T08:48:31.811Z,11.44
2023-03-15T08:51:09.313Z,11.35
2023-03-15T08:53:38.714Z,11.38
2023-03-15T08:56:10.845Z,11.28
2023-03-15T08:58:42.512Z,11.21
2023-03-15T09:01:14.585Z,11.26
2023-03-15T09:03:45.780Z,11.23
2023-03-15T09:06:14.751Z,11.17
2023-03-15T09:08:42.547Z,11.14
2023-03-15T09:11:10.857Z,11.17
2023-03-15T09:13:38.779Z,11.13
2023-03-15T09:16:10.792Z,11.28
2023-03-15T09:18:40.874Z,11.37
2023-03-15T09:21:09.049Z,11.55
2023-03-15T09:23:39.056Z,11.63
2023-03-15T09:26:10.535Z,11.63
2023-03-15T09:28:38.756Z,11.81
2023-03-15T09:31:07.652Z,11.76
2023-03-15T09:33:37.933Z,11.86
2023-03-15T09:36:07.839Z,12.00
2023-03-15T09:38:36.454Z,12.03
2023-03-15T09:41:05.007Z,12.08
2023-03-15T09:43:54.936Z,12.31
2023-03-15T09:46:31.005Z,12.45
2023-03-15T09:49:18.189Z,12.36
2023-03-15T09:51:54.985Z,12.46
2023-03-15T09:54:52.379Z,12.65
2023-03-15T09:57:47.164Z,12.94
2023-03-15T10:00:21.655Z,13.20
2023-03-15T10:02:59.456Z,12.96
2023-03-15T10:05:57.628Z,13.06
2023-03-15T10:08:26.169Z,13.27
2023-03-15T10:11:01.056Z,13.14
2023-03-15T10:13:51.765Z,12.87
2023-03-15T10:16:52.952Z,12.79
2023-03-15T10:20:01.628Z,13.03
2023-03-15T10:22:58.091Z,13.37
2023-03-15T10:25:37.094Z,13.40
2023-03-15T10:28:26.072Z,13.39
2023-03-15T10:31:01.405Z,13.23
2023-03-15T10:33:33.497Z,13.03
2023-03-15T10:36:11.582Z,13.06
2023-03-15T10:38:45.107Z,13.26
2023-03-15T10:41:23.499Z,13.52
2023-03-15T10:44:04.913Z,13.76
2023-03-15T10:46:35.780Z,13.66
2023-03-15T10:49:10.140Z,13.72
2023-03-15T10:51:47.592Z,13.66
2023-03-15T10:54:17.368Z,13.72
2023-03-15T10:56:53.691Z,13.71
2023-03-15T10:59:24.683Z,13.82
2023-03-15T11:02:14.748Z,14.12
2023-03-15T11:04:49.735Z,14.14
2023-03-15T11:07:18.737Z,14.33
2023-03-15T11:09:54.021Z,14.36
2023-03-15T11:12:26.913Z,14.43
2023-03-15T11:15:14.346Z,14.63
2023-03-15T11:17:47.101Z,14.74
2023-03-15T11:20:32.741Z,15.13
2023-03-15T11:23:16.287Z,15.23
2023-03-15T11:25:46.778Z,15.00
2023-03-15T11:28:19.745Z,14.78
2023-03-15T11:30:49.427Z,14.82
2023-03-15T11:33:38.545Z,14.68
2023-03-15T11:36:18.252Z,14.80
2023-03-15T11:38:47.942Z,15.09
2023-03-15T11:41:34.009Z,15.53
2023-03-15T11:44:14.463Z,15.75
2023-03-15T11:46:48.291Z,15.74
2023-03-15T11:49:22.647Z,15.53
2023-03-15T11:51:51.204Z,15.56
2023-03-15T11:54:20.360Z,15.63
2023-03-15T11:57:06.628Z,15.54
2023-03-15T11:59:46.362Z,15.54
2023-03-15T12:02:14.475Z,15.39
2023-03-15T12:04:47.762Z,15.14
2023-03-15T12:07:24.901Z,14.90
2023-03-15T12:10:05.150Z,14.68
2023-03-15T12:12:39.685Z,14.78
2023-03-15T12:15:20.366Z,14.83
2023-03-15T12:17:57.908Z,14.87
2023-03-15T12:20:41.314Z,15.00
2023-03-15T12:23:15.972Z,15.11
2023-03-15T12:26:04.157Z,15.21
2023-03-15T12:28:41.681Z,15.26
2023-03-15T12:31:13.608Z,15.23
2023-03-15T12:34:04.091Z,15.42
2023-03-15T12:36:40.465Z,15.54
2023-03-15T12:39:17.956Z,15.38
2023-03-15T12:41:47.758Z,15.35
2023-03-15T12:44:32.504Z,15.40
2023-03-15T12:47:05.275Z,15.47
2023-03-15T12:49:45.075Z,15.31
2023-03-15T12:52:16.297Z,15.41
2023-03-15T12:54:49.720Z,15.35
2023-03-15T12:57:48.412Z,15.49
2023-03-15T13:00:21.432Z,15.44
2023-03-15T13:03:04.691Z,15.32
2023-03-15T13:05:37.761Z,15.29
2023-03-15T13:08:11.816Z,15.13
2023-03-15T13:11:20.663Z,15.06
2023-03-15T13:14:01.443Z,15.10
2023-03-15T13:17:04.770Z,14.98
2023-03-15T13:19:42.137Z,14.86
2023-03-15T13:22:27.945Z,14.59
2023-03-15T13:25:13.609Z,14.43
2023-03-15T13:27:57.173Z,14.28
2023-03-15T13:30:38.416Z,14.26
2023-03-15T13:33:12.095Z,14.25
2023-03-15T13:35:58.166Z,14.23
2023-03-15T13:38:38.348Z,14.10
2023-03-15T13:41:25.867Z,14.19
2023-03-15T13:44:05.506Z,14.16
2023-03-15T13:46:34.976Z,14.07
2023-03-15T13:49:03.261Z,13.97
2023-03-15T13:51:33.839Z,14.04
2023-03-15T13:54:03.871Z,13.88
2023-03-15T13:56:48.869Z,13.89
2023-03-15T13:59:18.482Z,13.85
2023-03-15T14:01:46.874Z,13.89
2023-03-15T14:04:18.297Z,13.91
2023-03-15T14:06:49.759Z,13.96
2023-03-15T14:09:24.654Z,13.92
2023-03-15T14:12:06.545Z,13.92
2023-03-15T14:14:37.792Z,13.93
2023-03-15T14:17:22.070Z,14.03
2023-03-15T14:19:55.970Z,14.05
2023-03-15T14:22:31.373Z,14.07
2023-03-15T14:25:20.537Z,14.06
2023-03-15T14:27:49.163Z,14.05
2023-03-15T14:30:25.365Z,13.95
2023-03-15T14:32:59.217Z,13.85
2023-03-15T14:35:33.795Z,13.78
2023-03-15T14:38:14.764Z,13.68
2023-03-15T14:40:44.167Z,13.55
2023-03-15T14:43:17.135Z,13.47
2023-03-15T14:45:47.585Z,13.41
2023-03-15T14:48:32.277Z,13.35
2023-03-15T14:51:04.690Z,13.25
2023-03-15T14:53:36.625Z,13.21
2023-03-15T14:56:05.933Z,13.21
2023-03-15T14:58:34.075Z,13.16
2023-03-15T15:01:04.661Z,13.11
2023-03-15T15:03:42.484Z,13.08
2023-03-15T15:06:14.000Z,13.05
2023-03-15T15:08:47.749Z,13.04
2023-03-15T15:11:16.511Z,13.04
2023-03-15T15:13:45.871Z,12.99
2023-03-15T15:16:14.142Z,12.98
2023-03-15T15:18:42.089Z,12.95
2023-03-15T15:21:18.064Z,12.90
2023-03-15T15:23:57.878Z,12.85
2023-03-15T15:26:29.130Z,12.81
2023-03-15T15:28:59.851Z,12.68
2023-03-15T15:31:30.400Z,12.38
2023-03-15T15:34:04.359Z,12.13
2023-03-15T15:36:36.602Z,12.08
2023-03-15T15:39:07.523Z,12.02
2023-03-15T15:41:35.835Z,11.96
2023-03-15T15:44:16.402Z,11.95
2023-03-15T15:46:46.342Z,11.88
2023-03-15T15:49:15.088Z,11.81
2023-03-15T15:51:47.588Z,11.78
2023-03-15T15:54:27.106Z,11.68
2023-03-15T15:56:59.832Z,11.69
2023-03-15T15:59:28.771Z,11.64
2023-03-15T16:02:01.085Z,11.59
2023-03-15T16:04:30.807Z,11.44
2023-03-15T16:07:05.028Z,11.40
2023-03-15T16:09:36.502Z,11.26
2023-03-15T16:12:14.870Z,11.09
2023-03-15T16:14:44.458Z,11.01
2023-03-15T16:17:19.187Z,10.91
2023-03-15T16:19:50.358Z,10.79
2023-03-15T16:22:21.614Z,10.45
2023-03-15T16:24:54.303Z,10.16
2023-03-15T16:27:25.440Z,9.93
2023-03-15T16:29:55.519Z,9.72
2023-03-15T16:32:40.893Z,9.62
2023-03-15T16:35:16.090Z,9.45
2023-03-15T16:37:46.308Z,9.37
2023-03-15T16:40:19.236Z,9.36
2023-03-15T16:42:49.616Z,9.39
2023-03-15T16:45:18.004Z,9.29
2023-03-15T16:47:49.276Z,9.26
2023-03-15T16:50:18.654Z,9.24
2023-03-15T16:52:48.693Z,9.12
2023-03-15T16:55:24.424Z,9.13
2023-03-15T16:57:53.109Z,9.07
2023-03-15T17:00:21.606Z,8.98
2023-03-15T17:02:54.672Z,8.98
2023-03-15T17:05:25.242Z,9.01
2023-03-15T17:07:55.735Z,9.06
2023-03-15T17:10:27.814Z,9.06
2023-03-15T17:13:03.737Z,9.01
2023-03-15T17:15:32.994Z,8.99
2023-03-15T17:18:22.072Z,9.03
2023-03-15T17:20:54.959Z,9.00
2023-03-15T17:23:24.605Z,8.95
2023-03-15T17:25:53.885Z,8.90
2023-03-15T17:28:27.937Z,8.80
2023-03-15T17:31:14.015Z,8.78
2023-03-15T17:33:45.033Z,8.69
2023-03-15T17:36:15.690Z,8.58
2023-03-15T17:38:44.217Z,8.44
2023-03-15T17:41:24.492Z,8.34
2023-03-15T17:43:53.404Z,8.33
2023-03-15T17:46:28.379Z,8.36
2023-03-15T17:48:58.497Z,8.28
2023-03-15T17:51:32.242Z,8.19
2023-03-15T17:54:01.977Z,8.16
2023-03-15T17:56:30.741Z,8.16
2023-03-15T17:59:01.233Z,8.15
2023-03-15T18:01:30.196Z,8.14
2023-03-15T18:04:13.637Z,8.12
2023-03-15T18:06:42.219Z,8.11
2023-03-15T18:09:13.750Z,8.05
2023-03-15T18:11:46.336Z,8.04
2023-03-15T18:14:16.453Z,7.97
2023-03-15T18:16:50.429Z,7.95
2023-03-15T18:19:18.879Z,7.94
2023-03-15T18:21:46.780Z,7.93
2023-03-15T18:24:16.957Z,7.86
2023-03-15T18:26:45.145Z,7.78
2023-03-15T18:29:15.922Z,7.77
2023-03-15T18:31:44.977Z,7.69
2023-03-15T18:34:16.034Z,7.72
2023-03-15T18:36:50.591Z,7.70
2023-03-15T18:39:19.202Z,7.70
2023-03-15T18:41:47.314Z,7.69
2023-03-15T18:44:15.859Z,7.71
2023-03-15T18:46:46.526Z,7.70
2023-03-15T18:49:17.170Z,7.76
2023-03-15T18:51:45.645Z,7.77
2023-03-15T18:54:16.612Z,7.80
2023-03-15T18:56:48.678Z,7.82
2023-03-15T18:59:17.291Z,7.86
2023-03-15T19:01:46.802Z,7.79
2023-03-15T19:04:15.358Z,7.75
2023-03-15T19:06:44.025Z,7.77
2023-03-15T19:09:16.276Z,7.73
2023-03-15T19:11:44.659Z,7.72
2023-03-15T19:14:13.377Z,7.75
2023-03-15T19:16:43.120Z,7.78
2023-03-15T19:19:11.872Z,7.81
2023-03-15T19:21:42.791Z,7.81
2023-03-15T19:24:11.169Z,7.77
2023-03-15T19:26:39.537Z,7.74
2023-03-15T19:29:11.570Z,7.75
2023-03-15T19:31:39.943Z,7.78
2023-03-15T19:34:08.202Z,7.78
2023-03-15T19:36:36.664Z,7.78
2023-03-15T19:39:07.081Z,7.84
2023-03-15T19:41:35.398Z,7.85
2023-03-15T19:44:04.074Z,7.87
2023-03-15T19:46:38.761Z,7.90
2023-03-15T19:49:08.452Z,7.91
2023-03-15T19:51:37.091Z,7.93
2023-03-15T19:54:06.184Z,7.94
2023-03-15T19:56:38.082Z,7.94
2023-03-15T19:59:12.695Z,7.95
2023-03-15T20:01:42.668Z,8.00
2023-03-15T20:04:11.503Z,8.03
2023-03-15T20:06:41.276Z,8.03
2023-03-15T20:09:11.792Z,8.02
2023-03-15T20:11:39.991Z,8.01
2023-03-15T20:14:08.433Z,8.02
2023-03-15T20:16:37.259Z,8.03
2023-03-15T20:19:06.004Z,7.99
2023-03-15T20:21:38.763Z,7.90
2023-03-15T20:24:09.275Z,7.85
2023-03-15T20:26:41.263Z,7.81
2023-03-15T20:29:09.910Z,7.81
2023-03-15T20:31:40.457Z,7.83
2023-03-15T20:34:12.538Z,7.80
2023-03-15T20:36:43.213Z,7.76
2023-03-15T20:39:13.454Z,7.72
2023-03-15T20:41:43.718Z,7.72
2023-03-15T20:44:11.934Z,7.68
2023-03-15T20:46:41.690Z,7.70
2023-03-15T20:49:17.479Z,7.69
2023-03-15T20:51:45.944Z,7.68
2023-03-15T20:54:14.564Z,7.62
2023-03-15T20:56:43.275Z,7.44
2023-03-15T20:59:12.519Z,7.38
2023-03-15T21:01:49.942Z,7.31
2023-03-15T21:04:18.040Z,7.28
2023-03-15T21:06:49.715Z,7.27
2023-03-15T21:09:19.573Z,7.26
2023-03-15T21:11:51.794Z,7.26
2023-03-15T21:14:21.168Z,7.25
2023-03-15T21:16:49.634Z,7.22
2023-03-15T21:19:23.186Z,7.23
2023-03-15T21:21:52.802Z,7.23
2023-03-15T21:24:21.989Z,7.23
2023-03-15T21:26:55.108Z,7.26
2023-03-15T21:29:23.473Z,7.32
2023-03-15T21:31:51.782Z,7.32
2023-03-15T21:34:20.360Z,7.32
2023-03-15T21:36:49.166Z,7.35
2023-03-15T21:39:17.942Z,7.33
2023-03-15T21:41:47.600Z,7.34
2023-03-15T21:44:15.712Z,7.36
2023-03-15T21:46:43.973Z,7.35
2023-03-15T21:49:12.527Z,7.33
2023-03-15T21:51:46.368Z,7.29
2023-03-15T21:54:14.727Z,7.30
2023-03-15T21:56:43.733Z,7.28
2023-03-15T21:59:12.733Z,7.28
2023-03-15T22:01:42.124Z,7.23
2023-03-15T22:04:15.397Z,7.27
2023-03-15T22:06:44.205Z,7.23
2023-03-15T22:09:12.415Z,7.21
2023-03-15T22:11:41.203Z,7.20
2023-03-15T22:14:10.671Z,7.20
2023-03-15T22:16:39.326Z,7.17
2023-03-15T22:19:07.626Z,7.16
2023-03-15T22:21:36.212Z,7.19
2023-03-15T22:24:04.758Z,7.19
2023-03-15T22:26:43.523Z,7.16
2023-03-15T22:29:13.366Z,7.16
2023-03-15T22:31:41.407Z,7.22
2023-03-15T22:34:11.508Z,7.22
2023-03-15T22:36:40.218Z,7.21
2023-03-15T22:39:09.287Z,7.21
2023-03-15T22:41:38.791Z,7.23
2023-03-15T22:44:06.963Z,7.17
2023-03-15T22:46:36.834Z,7.18
2023-03-15T22:49:06.152Z,7.19
2023-03-15T22:51:40.682Z,7.22
2023-03-15T22:54:09.650Z,7.31
2023-03-15T22:56:39.979Z,7.28
2023-03-15T22:59:09.002Z,7.22
2023-03-15T23:01:37.524Z,7.19
2023-03-15T23:04:05.886Z,7.19
2023-03-15T23:06:35.167Z,7.16
2023-03-15T23:09:06.759Z,7.18
2023-03-15T23:11:37.708Z,7.19
2023-03-15T23:14:05.925Z,7.20
2023-03-15T23:16:35.798Z,7.21
2023-03-15T23:19:04.494Z,7.27
2023-03-15T23:21:32.699Z,7.28
2023-03-15T23:24:03.330Z,7.34
2023-03-15T23:26:37.493Z,7.34
2023-03-15T23:29:11.103Z,7.34
2023-03-15T23:31:44.448Z,7.36
2023-03-15T23:34:13.527Z,7.36
2023-03-15T23:36:45.319Z,7.35
2023-03-15T23:39:13.930Z,7.34
2023-03-15T23:41:48.143Z,7.30
2023-03-15T23:44:16.544Z,7.24
2023-03-15T23:46:44.861Z,7.29
2023-03-15T23:49:13.901Z,7.33
2023-03-15T23:51:44.468Z,7.31
2023-03-15T23:54:12.844Z,7.34
2023-03-15T23:56:44.868Z,7.32
2023-03-15T23:59:21.992Z,7.31
